createdAt,value
2019-03-03T00:03:01.193Z,92.37
2019-03-03T00:06:05.592Z,92.46
2019-03-03T00:09:09.925Z,92.53
2019-03-03T00:12:14.217Z,92.45
2019-03-03T00:15:20.977Z,92.09
2019-03-03T00:18:25.361Z,92.08
2019-03-03T00:21:29.701Z,92.24
2019-03-03T00:24:34.085Z,92.69
2019-03-03T00:27:38.377Z,92.76
2019-03-03T00:30:42.853Z,92.95
2019-03-03T00:33:47.255Z,93.08
2019-03-03T00:37:28.654Z,92.98
2019-03-03T00:40:45.596Z,93.17
2019-03-03T00:43:58.283Z,93.71
2019-03-03T00:47:24.469Z,94.08
2019-03-03T00:50:38.379Z,94.24
2019-03-03T00:54:10.543Z,94.21
2019-03-03T00:57:32.348Z,94.40
2019-03-03T01:01:04.915Z,94.66
2019-03-03T01:04:14.900Z,94.63
2019-03-03T01:07:41.167Z,94.94
2019-03-03T01:11:04.400Z,94.77
2019-03-03T01:14:42.888Z,94.87
2019-03-03T01:17:53.313Z,94.58
2019-03-03T01:21:02.015Z,94.53
2019-03-03T01:24:25.581Z,94.24
2019-03-03T01:27:29.870Z,93.83
2019-03-03T01:30:34.174Z,93.87
2019-03-03T01:33:38.542Z,93.31
2019-03-03T01:36:42.914Z,92.70
2019-03-03T01:39:47.309Z,92.80
2019-03-03T01:42:51.610Z,92.27
2019-03-03T01:45:55.928Z,92.35
2019-03-03T01:49:00.240Z,92.37
2019-03-03T01:52:04.546Z,91.73
2019-03-03T01:55:09.794Z,91.38
2019-03-03T01:58:14.227Z,91.40
2019-03-03T02:01:18.535Z,91.39
2019-03-03T02:04:22.854Z,91.79
2019-03-03T02:07:27.137Z,91.69
2019-03-03T02:10:31.425Z,91.01
2019-03-03T02:13:35.724Z,90.78
2019-03-03T02:16:40.048Z,90.92
2019-03-03T02:19:44.332Z,90.65
2019-03-03T02:22:51.605Z,90.36
2019-03-03T02:25:55.914Z,90.14
2019-03-03T02:29:00.227Z,89.84
2019-03-03T02:32:06.406Z,89.92
2019-03-03T02:35:10.786Z,89.56
2019-03-03T02:38:15.298Z,89.46
2019-03-03T02:41:19.714Z,89.53
2019-03-03T02:44:27.099Z,89.44
2019-03-03T02:47:31.407Z,89.38
2019-03-03T02:50:35.910Z,89.13
2019-03-03T02:53:40.173Z,89.15
2019-03-03T02:56:44.475Z,89.46
2019-03-03T02:59:48.783Z,89.43
2019-03-03T03:02:55.029Z,89.95
2019-03-03T03:06:18.367Z,90.38
2019-03-03T03:09:28.869Z,90.72
2019-03-03T03:12:51.572Z,91.04
2019-03-03T03:16:10.874Z,91.32
2019-03-03T03:19:24.625Z,91.22
2019-03-03T03:22:47.875Z,91.40
2019-03-03T03:26:11.021Z,91.41
2019-03-03T03:29:37.169Z,91.82
2019-03-03T03:32:48.250Z,92.60
2019-03-03T03:35:58.625Z,93.70
2019-03-03T03:39:15.546Z,94.32
2019-03-03T03:42:31.380Z,95.09
2019-03-03T03:46:03.655Z,95.18
2019-03-03T03:49:21.483Z,95.56
2019-03-03T03:53:02.945Z,96.06
2019-03-03T03:56:24.541Z,95.79
2019-03-03T03:59:44.122Z,95.68
2019-03-03T04:03:07.957Z,96.04
2019-03-03T04:06:24.787Z,96.20
2019-03-03T04:09:43.217Z,96.32
2019-03-03T04:13:06.571Z,96.53
2019-03-03T04:16:33.016Z,96.17
2019-03-03T04:19:44.697Z,96.12
2019-03-03T04:23:10.487Z,96.41
2019-03-03T04:26:23.016Z,96.41
2019-03-03T04:30:01.829Z,96.39
2019-03-03T04:33:21.052Z,96.24
2019-03-03T04:37:04.062Z,96.33
2019-03-03T04:40:27.368Z,96.35
2019-03-03T04:43:49.325Z,96.33
2019-03-03T04:47:07.397Z,96.47
2019-03-03T04:50:29.518Z,96.70
2019-03-03T04:53:52.920Z,96.96
2019-03-03T04:57:19.367Z,96.95
2019-03-03T05:00:54.818Z,97.01
2019-03-03T05:04:11.470Z,97.28
2019-03-03T05:07:22.473Z,96.94
2019-03-03T05:10:45.865Z,96.95
2019-03-03T05:13:54.478Z,97.48
2019-03-03T05:17:17.753Z,97.38
2019-03-03T05:20:22.391Z,97.21
2019-03-03T05:23:26.818Z,97.22
2019-03-03T05:26:31.122Z,97.18
2019-03-03T05:29:35.871Z,97.02
2019-03-03T05:32:40.697Z,96.57
2019-03-03T05:35:45.262Z,97.16
2019-03-03T05:38:49.733Z,97.54
2019-03-03T05:41:54.250Z,97.19
2019-03-03T05:45:00.501Z,97.14
2019-03-03T05:48:05.749Z,97.22
2019-03-03T05:51:12.545Z,97.35
2019-03-03T05:54:17.012Z,97.61
2019-03-03T05:57:21.686Z,97.88
2019-03-03T06:00:26.143Z,98.17
2019-03-03T06:03:30.732Z,98.18
2019-03-03T06:06:35.112Z,98.51
2019-03-03T06:09:39.629Z,98.62
2019-03-03T06:12:44.097Z,98.70
2019-03-03T06:15:48.675Z,98.64
2019-03-03T06:18:53.394Z,98.59
2019-03-03T06:21:57.751Z,98.69
2019-03-03T06:25:02.321Z,98.55
2019-03-03T06:28:10.017Z,98.46
2019-03-03T06:31:14.569Z,98.52
2019-03-03T06:34:19.029Z,98.59
2019-03-03T06:37:23.419Z,98.43
2019-03-03T06:40:27.847Z,98.08
2019-03-03T06:43:32.198Z,97.45
2019-03-03T06:46:36.552Z,97.43
2019-03-03T06:49:40.884Z,97.10
2019-03-03T06:52:45.316Z,97.05
2019-03-03T06:55:49.923Z,96.71
2019-03-03T06:58:54.598Z,96.22
2019-03-03T07:02:00.760Z,96.14
2019-03-03T07:05:05.764Z,96.47
2019-03-03T07:08:10.150Z,96.49
2019-03-03T07:11:14.542Z,95.86
2019-03-03T07:14:19.152Z,95.31
2019-03-03T07:17:23.584Z,95.07
2019-03-03T07:20:29.340Z,94.91
2019-03-03T07:23:33.788Z,95.08
2019-03-03T07:26:38.102Z,94.62
2019-03-03T07:29:42.534Z,94.36
2019-03-03T07:33:04.834Z,94.34
2019-03-03T07:36:09.476Z,94.27
2019-03-03T07:39:18.609Z,93.82
2019-03-03T07:42:24.393Z,93.19
2019-03-03T07:45:28.736Z,93.17
2019-03-03T07:48:33.056Z,93.08
2019-03-03T07:51:37.367Z,92.77
2019-03-03T07:54:41.745Z,92.52
2019-03-03T07:57:46.969Z,92.51
2019-03-03T08:00:51.331Z,92.30
2019-03-03T08:03:55.776Z,92.21
2019-03-03T08:07:00.113Z,91.65
2019-03-03T08:10:04.904Z,91.23
2019-03-03T08:13:09.735Z,91.19
2019-03-03T08:16:14.147Z,91.35
2019-03-03T08:19:18.437Z,91.30
2019-03-03T08:22:22.791Z,90.99
2019-03-03T08:25:27.166Z,91.10
2019-03-03T08:28:31.585Z,91.05
2019-03-03T08:31:35.873Z,90.69
2019-03-03T08:34:40.410Z,90.50
2019-03-03T08:37:44.725Z,90.05
2019-03-03T08:40:49.260Z,90.77
2019-03-03T08:44:04.436Z,90.53
2019-03-03T08:47:30.875Z,90.45
2019-03-03T08:50:44.361Z,90.45
2019-03-03T08:53:55.870Z,89.49
2019-03-03T08:57:28.486Z,88.67
2019-03-03T09:00:38.801Z,88.30
2019-03-03T09:03:59.700Z,88.15
2019-03-03T09:07:26.235Z,87.54
2019-03-03T09:10:44.194Z,87.82
2019-03-03T09:13:53.944Z,86.81
2019-03-03T09:17:26.587Z,86.92
2019-03-03T09:20:52.953Z,86.71
2019-03-03T09:24:28.458Z,86.31
2019-03-03T09:28:00.856Z,85.35
2019-03-03T09:31:23.412Z,84.19
2019-03-03T09:34:58.906Z,84.25
2019-03-03T09:38:18.118Z,84.00
2019-03-03T09:41:40.232Z,82.49
2019-03-03T09:45:06.529Z,83.24
2019-03-03T09:48:31.604Z,81.16
2019-03-03T09:52:01.778Z,80.22
2019-03-03T09:55:11.546Z,79.01
2019-03-03T09:58:37.768Z,76.99
2019-03-03T10:02:10.499Z,77.00
2019-03-03T10:05:32.807Z,77.05
2019-03-03T10:08:59.152Z,77.07
2019-03-03T10:12:16.839Z,77.14
2019-03-03T10:15:43.408Z,76.11
2019-03-03T10:18:56.036Z,76.94
2019-03-03T10:22:06.520Z,77.23
2019-03-03T10:25:43.114Z,78.01
2019-03-03T10:29:22.276Z,79.23
2019-03-03T10:32:44.323Z,79.46
2019-03-03T10:36:07.952Z,78.45
2019-03-03T10:39:33.845Z,78.26
2019-03-03T10:42:55.976Z,77.45
2019-03-03T10:46:22.334Z,78.23
2019-03-03T10:49:39.039Z,77.37
2019-03-03T10:52:51.857Z,77.62
2019-03-03T10:56:27.284Z,77.34
2019-03-03T10:59:55.111Z,77.57
2019-03-03T11:03:15.519Z,77.92
2019-03-03T11:06:44.784Z,78.31
2019-03-03T11:10:11.327Z,77.97
2019-03-03T11:13:40.702Z,78.84
2019-03-03T11:17:02.767Z,79.08
2019-03-03T11:20:16.630Z,79.77
2019-03-03T11:23:39.049Z,79.96
2019-03-03T11:27:08.877Z,79.92
2019-03-03T11:30:21.910Z,79.99
2019-03-03T11:33:44.492Z,79.81
2019-03-03T11:37:05.191Z,79.77
2019-03-03T11:40:48.283Z,79.49
2019-03-03T11:44:20.600Z,78.82
2019-03-03T11:47:41.583Z,78.64
2019-03-03T11:51:19.943Z,77.18
2019-03-03T11:54:34.665Z,77.12
2019-03-03T11:58:01.121Z,77.07
2019-03-03T12:01:40.295Z,75.90
2019-03-03T12:05:03.030Z,76.57
2019-03-03T12:08:29.798Z,75.41
2019-03-03T12:11:51.913Z,75.11
2019-03-03T12:15:08.077Z,75.59
2019-03-03T12:18:29.344Z,74.87
2019-03-03T12:21:55.653Z,74.39
2019-03-03T12:25:25.204Z,74.42
2019-03-03T12:28:47.419Z,74.12
2019-03-03T12:32:28.876Z,74.34
2019-03-03T12:35:58.454Z,74.49
2019-03-03T12:39:14.262Z,74.70
2019-03-03T12:42:37.534Z,74.96
2019-03-03T12:45:59.889Z,74.72
2019-03-03T12:49:12.579Z,75.22
2019-03-03T12:52:27.079Z,74.93
2019-03-03T12:55:52.154Z,74.23
2019-03-03T12:59:26.079Z,74.52
2019-03-03T13:02:55.661Z,74.49
2019-03-03T13:06:11.903Z,74.83
2019-03-03T13:09:44.663Z,75.05
2019-03-03T13:12:56.154Z,75.50
2019-03-03T13:16:06.625Z,75.43
2019-03-03T13:19:48.787Z,75.32
2019-03-03T13:23:17.593Z,75.99
2019-03-03T13:26:50.566Z,76.18
2019-03-03T13:30:16.728Z,76.17
2019-03-03T13:33:44.331Z,75.97
2019-03-03T13:37:10.696Z,76.18
2019-03-03T13:40:35.042Z,76.37
2019-03-03T13:43:39.356Z,76.39
2019-03-03T13:46:43.785Z,76.69
2019-03-03T13:49:48.088Z,75.74
2019-03-03T13:52:52.401Z,76.62
2019-03-03T13:55:56.736Z,76.41
2019-03-03T13:59:01.060Z,76.23
2019-03-03T14:02:05.767Z,75.91
2019-03-03T14:05:10.544Z,76.49
2019-03-03T14:08:14.976Z,76.60
2019-03-03T14:11:27.757Z,76.91
2019-03-03T14:14:32.212Z,76.47
2019-03-03T14:17:36.522Z,76.09
2019-03-03T14:20:40.843Z,76.35
2019-03-03T14:23:45.143Z,76.61
2019-03-03T14:26:49.479Z,76.85
2019-03-03T14:29:53.828Z,76.87
2019-03-03T14:32:58.619Z,76.64
2019-03-03T14:36:05.807Z,77.21
2019-03-03T14:39:10.498Z,76.96
2019-03-03T14:42:15.120Z,77.72
2019-03-03T14:45:19.966Z,76.76
2019-03-03T14:48:24.301Z,77.79
2019-03-03T14:51:28.706Z,77.67
2019-03-03T14:54:33.140Z,77.38
2019-03-03T14:57:37.479Z,77.10
2019-03-03T15:00:41.844Z,77.38
2019-03-03T15:03:46.150Z,78.08
2019-03-03T15:06:50.836Z,77.25
2019-03-03T15:09:55.129Z,78.00
2019-03-03T15:13:00.084Z,78.50
2019-03-03T15:16:04.641Z,78.95
2019-03-03T15:19:09.060Z,78.87
2019-03-03T15:22:13.438Z,78.87
2019-03-03T15:25:17.865Z,78.42
2019-03-03T15:28:22.379Z,78.70
2019-03-03T15:31:26.813Z,78.69
2019-03-03T15:34:31.449Z,78.52
2019-03-03T15:37:35.806Z,78.88
2019-03-03T15:40:40.108Z,78.98
2019-03-03T15:43:44.802Z,79.12
2019-03-03T15:46:49.148Z,80.15
2019-03-03T15:49:53.676Z,80.55
2019-03-03T15:52:58.044Z,81.14
2019-03-03T15:56:02.462Z,79.96
2019-03-03T15:59:06.945Z,81.05
2019-03-03T16:02:12.455Z,80.58
2019-03-03T16:05:19.620Z,79.44
2019-03-03T16:08:23.995Z,79.38
2019-03-03T16:11:28.316Z,80.15
2019-03-03T16:14:35.507Z,80.54
2019-03-03T16:17:40.167Z,81.24
2019-03-03T16:20:44.610Z,82.42
2019-03-03T16:23:48.994Z,83.33
2019-03-03T16:26:53.559Z,83.89
2019-03-03T16:29:58.084Z,84.94
2019-03-03T16:33:02.475Z,86.23
2019-03-03T16:36:07.313Z,87.27
2019-03-03T16:39:12.290Z,87.92
2019-03-03T16:42:16.966Z,88.45
2019-03-03T16:45:21.801Z,89.61
2019-03-03T16:48:26.455Z,89.29
2019-03-03T16:51:31.104Z,89.81
2019-03-03T16:54:35.707Z,89.35
2019-03-03T16:57:40.366Z,89.61
2019-03-03T17:00:44.803Z,89.48
2019-03-03T17:03:51.075Z,89.77
2019-03-03T17:06:55.555Z,89.88
2019-03-03T17:10:00.261Z,90.00
2019-03-03T17:13:05.046Z,90.22
2019-03-03T17:16:09.368Z,90.35
2019-03-03T17:19:13.897Z,90.57
2019-03-03T17:22:18.252Z,90.74
2019-03-03T17:25:24.190Z,90.82
2019-03-03T17:28:28.600Z,91.05
2019-03-03T17:31:33.191Z,90.67
2019-03-03T17:34:37.732Z,90.47
2019-03-03T17:37:42.125Z,90.60
2019-03-03T17:40:46.512Z,90.82
2019-03-03T17:43:51.000Z,91.09
2019-03-03T17:46:55.497Z,91.53
2019-03-03T17:49:59.958Z,91.61
2019-03-03T17:53:04.609Z,91.54
2019-03-03T17:56:09.318Z,91.81
2019-03-03T17:59:13.885Z,92.23
2019-03-03T18:02:18.727Z,92.76
2019-03-03T18:05:23.635Z,92.58
2019-03-03T18:08:28.350Z,92.55
2019-03-03T18:11:32.978Z,92.77
2019-03-03T18:14:37.435Z,92.65
2019-03-03T18:17:41.869Z,92.66
2019-03-03T18:20:46.402Z,92.88
2019-03-03T18:23:50.910Z,93.10
2019-03-03T18:26:55.438Z,93.24
2019-03-03T18:30:01.881Z,93.16
2019-03-03T18:33:06.335Z,93.16
2019-03-03T18:36:10.731Z,93.08
2019-03-03T18:39:17.476Z,93.28
2019-03-03T18:42:22.089Z,93.27
2019-03-03T18:45:26.815Z,93.29
2019-03-03T18:48:34.352Z,93.16
2019-03-03T18:51:39.083Z,93.21
2019-03-03T18:54:43.824Z,93.19
2019-03-03T18:57:48.597Z,93.23
2019-03-03T19:00:53.220Z,93.36
2019-03-03T19:03:57.773Z,93.25
2019-03-03T19:07:02.340Z,93.45
2019-03-03T19:10:09.184Z,93.55
2019-03-03T19:13:13.802Z,93.72
2019-03-03T19:16:18.276Z,93.79
2019-03-03T19:19:23.025Z,93.73
2019-03-03T19:22:27.768Z,93.87
2019-03-03T19:25:32.587Z,94.00
2019-03-03T19:28:37.351Z,94.08
2019-03-03T19:31:44.924Z,94.31
2019-03-03T19:34:49.637Z,94.33
2019-03-03T19:37:54.525Z,94.47
2019-03-03T19:40:59.359Z,94.62
2019-03-03T19:44:04.666Z,94.72
2019-03-03T19:47:09.583Z,94.63
2019-03-03T19:50:15.100Z,94.68
2019-03-03T19:53:19.830Z,95.01
2019-03-03T19:56:24.831Z,95.08
2019-03-03T19:59:29.886Z,95.36
2019-03-03T20:02:34.969Z,95.39
2019-03-03T20:05:39.895Z,95.61
2019-03-03T20:08:44.845Z,95.93
2019-03-03T20:11:53.730Z,96.09
2019-03-03T20:14:58.662Z,96.25
2019-03-03T20:18:03.540Z,96.44
2019-03-03T20:21:10.932Z,96.58
2019-03-03T20:24:16.055Z,96.94
2019-03-03T20:27:20.934Z,97.03
2019-03-03T20:30:27.171Z,97.09
2019-03-03T20:33:31.817Z,97.07
2019-03-03T20:36:36.725Z,97.50
2019-03-03T20:39:41.759Z,97.80
2019-03-03T20:42:46.690Z,97.67
2019-03-03T20:45:51.466Z,97.54
2019-03-03T20:48:56.272Z,97.79
2019-03-03T20:52:00.973Z,97.54
2019-03-03T20:55:10.947Z,97.75
2019-03-03T20:58:17.578Z,97.78
2019-03-03T21:01:22.200Z,97.67
2019-03-03T21:04:26.773Z,97.78
2019-03-03T21:07:31.527Z,97.83
2019-03-03T21:10:38.575Z,97.89
2019-03-03T21:13:43.234Z,98.02
2019-03-03T21:16:47.962Z,98.00
2019-03-03T21:19:53.084Z,98.08
2019-03-03T21:22:57.578Z,97.88
2019-03-03T21:26:02.138Z,97.94
2019-03-03T21:29:06.652Z,97.68
2019-03-03T21:32:11.134Z,98.06
2019-03-03T21:35:15.666Z,97.76
2019-03-03T21:38:20.249Z,97.72
2019-03-03T21:41:24.627Z,97.64
2019-03-03T21:44:29.144Z,97.67
2019-03-03T21:47:33.622Z,97.61
2019-03-03T21:50:38.119Z,97.67
2019-03-03T21:53:44.278Z,97.59
2019-03-03T21:56:48.648Z,97.57
2019-03-03T21:59:53.160Z,97.55
2019-03-03T22:02:57.792Z,97.40
2019-03-03T22:06:02.508Z,97.21
2019-03-03T22:09:09.440Z,97.21
2019-03-03T22:12:14.906Z,97.02
2019-03-03T22:15:19.320Z,96.82
2019-03-03T22:18:23.682Z,96.80
2019-03-03T22:21:28.277Z,96.63
2019-03-03T22:24:32.733Z,96.51
2019-03-03T22:27:37.288Z,96.61
2019-03-03T22:30:41.776Z,96.58
2019-03-03T22:33:46.498Z,96.22
2019-03-03T22:36:50.978Z,96.46
2019-03-03T22:39:55.636Z,96.54
2019-03-03T22:42:59.984Z,96.70
2019-03-03T22:46:04.476Z,96.67
2019-03-03T22:49:08.924Z,96.01
2019-03-03T22:52:13.301Z,96.12
2019-03-03T22:55:18.293Z,96.00
2019-03-03T22:58:22.897Z,95.68
2019-03-03T23:01:40.495Z,95.64
2019-03-03T23:05:02.044Z,95.31
2019-03-03T23:08:53.691Z,95.41
2019-03-03T23:12:20.216Z,95.38
2019-03-03T23:15:46.185Z,95.42
2019-03-03T23:19:27.374Z,95.20
2019-03-03T23:23:02.874Z,95.63
2019-03-03T23:26:16.308Z,95.87
2019-03-03T23:29:13.790Z,96.21
2019-03-03T23:32:18.173Z,96.14
2019-03-03T23:35:22.641Z,96.85
2019-03-03T23:38:27.020Z,96.90
2019-03-03T23:41:31.428Z,97.20
2019-03-03T23:44:35.896Z,97.24
2019-03-03T23:47:40.300Z,97.58
2019-03-03T23:50:44.822Z,97.67
2019-03-03T23:53:49.464Z,97.10
2019-03-03T23:56:53.828Z,97.18
2019-03-03T23:59:58.209Z,97.44
